Mercury — 3FFC7 — position and weather

sailwx.info

Track history (hours):
 
Tides and Currents Weather Stations Pressure Air Temp Water Temp Dewpoint Dewpoint Depression Visibility Wind Speed Wind Dir Waves Ship Positions

Mercury

Operator: Royal Caribbean Cruises Ltd

Last reported at 2018-Jun-19 17:46 UTC. Time now 2018-Jun-19 20:03 UTC.
Position N 54°35' E 007°25'.

Length 199 m; draft 8 m.

Type: Cargo ship. MMSI: 371862000.

Date/timePositionNaut miles runAvg speedWind from/ knotsBaromVisibWave heightAir tempDewpointWater temp
2018-Jun-19 17:46N 54°35' E 007°25'  
2018-Jun-17 00:08N 54°41' E 007°42'0 2.1
2018-Jun-16 23:59N 54°41' E 007°41'1 2.5
2018-Jun-16 23:30N 54°42' E 007°40'16 0.4
2018-Jun-15 08:27N 54°41' E 007°12'1 1.8
2018-Jun-15 07:54N 54°41' E 007°10'1 1.7
2018-Jun-15 07:29N 54°41' E 007°09'  
2018-Jun-12 13:04N 53°38' E 004°50'212.0
2018-Jun-12 12:54N 53°36' E 004°49'512.2
2018-Jun-12 12:30N 53°32' E 004°45'612.5
2018-Jun-12 12:00N 53°26' E 004°42'612.4
2018-Jun-12 11:30N 53°20' E 004°39'712.3
2018-Jun-12 10:55N 53°13' E 004°34'512.0
2018-Jun-12 10:30N 53°09' E 004°30'611.9
2018-Jun-12 10:00N 53°04' E 004°25'612.1
2018-Jun-12 09:30N 52°59' E 004°20'612.6
2018-Jun-12 09:00N 52°53' E 004°16'712.5
2018-Jun-12 08:29N 52°48' E 004°10'612.4
2018-Jun-12 08:00N 52°43' E 004°04'712.6
2018-Jun-12 07:29N 52°38' E 003°56'612.4
2018-Jun-12 07:00N 52°34' E 003°49'612.3
2018-Jun-12 06:30N 52°29' E 003°43'612.3
2018-Jun-12 06:00N 52°24' E 003°39'612.7
2018-Jun-12 05:30N 52°18' E 003°35'713.1
2018-Jun-12 05:00N 52°12' E 003°30'713.5
2018-Jun-12 04:30N 52°06' E 003°25'713.7
2018-Jun-12 04:00N 51°59' E 003°23'714.0
2018-Jun-12 03:30N 51°52' E 003°21'714.2
2018-Jun-12 02:59N 51°45' E 003°16'611.6
2018-Jun-12 02:30N 51°40' E 003°19'611.7
2018-Jun-12 02:00N 51°35' E 003°24'612.3
2018-Jun-12 01:30N 51°30' E 003°29'611.1
2018-Jun-12 01:00N 51°26' E 003°35'4 7.8
2018-Jun-12 00:31N 51°26' E 003°41'714.8
2018-Jun-12 00:01N 51°21' E 003°50'612.8
2018-Jun-11 23:30N 51°25' E 003°58'4 8.2
2018-Jun-11 23:00N 51°23' E 004°03'612.1
2018-Jun-11 22:30N 51°23' E 004°13'510.0
2018-Jun-11 22:01N 51°19' E 004°16'2 4.6
2018-Jun-11 21:31N 51°17' E 004°15'0 0.0
2018-Jun-11 21:00N 51°17' E 004°15'0 1.0
2018-Jun-11 20:30N 51°16' E 004°15'1 1.2
2018-Jun-11 20:01N 51°16' E 004°14'0 0.0
2018-Jun-11 19:31N 51°16' E 004°14'0 0.0
2018-Jun-11 19:01N 51°16' E 004°14'0 0.0
2018-Jun-11 18:28N 51°16' E 004°14'0 0.0
2018-Jun-11 17:58N 51°16' E 004°14'0 0.0
2018-Jun-11 17:28N 51°16' E 004°14'0 0.0
2018-Jun-11 16:58N 51°16' E 004°14'0 0.0
2018-Jun-11 16:28N 51°16' E 004°14'0 0.0
2018-Jun-11 15:58N 51°16' E 004°14'0 0.0
2018-Jun-11 15:28N 51°16' E 004°14'0 0.0
2018-Jun-11 14:58N 51°16' E 004°14'0 0.0
2018-Jun-11 14:28N 51°16' E 004°14'0 0.0
2018-Jun-11 13:58N 51°16' E 004°14'0 0.0
2018-Jun-11 13:28N 51°16' E 004°14'0 0.0
2018-Jun-11 12:58N 51°16' E 004°14'0 0.0
2018-Jun-11 12:28N 51°16' E 004°14'0 0.0
2018-Jun-11 11:58N 51°16' E 004°14'0 0.0
2018-Jun-11 11:28N 51°16' E 004°14'0 0.0
2018-Jun-11 10:58N 51°16' E 004°14'0 0.0
2018-Jun-11 10:28N 51°16' E 004°14'0 0.0
2018-Jun-11 09:58N 51°16' E 004°14'0 0.0
2018-Jun-11 09:28N 51°16' E 004°14'0 0.0
2018-Jun-11 08:58N 51°16' E 004°14'0 0.0
2018-Jun-11 08:28N 51°16' E 004°14'0 0.0
2018-Jun-11 07:58N 51°16' E 004°14'0 0.0
2018-Jun-11 07:28N 51°16' E 004°14'0 0.0
2018-Jun-11 06:58N 51°16' E 004°14'0 0.0
2018-Jun-11 06:28N 51°16' E 004°14'0 0.0
2018-Jun-11 05:58N 51°16' E 004°14'0 0.0
2018-Jun-11 05:28N 51°16' E 004°14'0 0.0
2018-Jun-11 04:58N 51°16' E 004°14'0 0.0
2018-Jun-11 04:28N 51°16' E 004°14'0 0.0
2018-Jun-11 03:58N 51°16' E 004°14'0 0.0
2018-Jun-11 03:28N 51°16' E 004°14'0 0.0
2018-Jun-11 02:58N 51°16' E 004°14'0 0.0
2018-Jun-11 02:28N 51°16' E 004°14'0 0.0
2018-Jun-11 01:58N 51°16' E 004°14'0 0.0
2018-Jun-11 01:28N 51°16' E 004°14'0 0.0
2018-Jun-11 00:58N 51°16' E 004°14'0 0.0
2018-Jun-11 00:28N 51°16' E 004°14'0 0.0
2018-Jun-10 23:58N 51°16' E 004°14'0 0.0
2018-Jun-10 23:28N 51°16' E 004°14'0 0.0
2018-Jun-10 22:58N 51°16' E 004°14'0 0.0
2018-Jun-10 22:28N 51°16' E 004°14'0 0.0
2018-Jun-10 21:58N 51°16' E 004°14'0 0.0
2018-Jun-10 21:28N 51°16' E 004°14'0 0.0
2018-Jun-10 20:58N 51°16' E 004°14'0 0.0
2018-Jun-10 20:28N 51°16' E 004°14'0 0.0
2018-Jun-10 19:58N 51°16' E 004°14'0 0.0
2018-Jun-10 19:25N 51°16' E 004°14'0 0.0
2018-Jun-10 18:58N 51°16' E 004°14'0 0.0
2018-Jun-10 18:28N 51°16' E 004°14'0 0.0
2018-Jun-10 17:58N 51°16' E 004°14'0 0.0
2018-Jun-10 17:28N 51°16' E 004°14'0 0.0
2018-Jun-10 16:58N 51°16' E 004°14'0 0.0
2018-Jun-10 16:28N 51°16' E 004°14'0 0.0
2018-Jun-10 15:58N 51°16' E 004°14'0 0.0
2018-Jun-10 15:28N 51°16' E 004°14'0 0.0
2018-Jun-10 14:58N 51°16' E 004°14'0 0.0
2018-Jun-10 13:58N 51°16' E 004°14'0 0.0
2018-Jun-10 13:28N 51°16' E 004°14'0 0.0
2018-Jun-10 12:58N 51°16' E 004°14'0 0.0
2018-Jun-10 12:28N 51°16' E 004°14'0 0.0
2018-Jun-10 11:58N 51°16' E 004°14'0 0.0
2018-Jun-10 11:28N 51°16' E 004°14'0 0.0
2018-Jun-10 10:58N 51°16' E 004°14'0 0.0
2018-Jun-10 10:28N 51°16' E 004°14'0 0.0
2018-Jun-10 09:58N 51°16' E 004°14'0 0.0
2018-Jun-10 09:28N 51°16' E 004°14'0 0.0
2018-Jun-10 08:58N 51°16' E 004°14'0 0.0
2018-Jun-10 08:28N 51°16' E 004°14'0 0.0
2018-Jun-10 07:58N 51°16' E 004°14'0 0.0
2018-Jun-10 07:28N 51°16' E 004°14'0 0.0
2018-Jun-10 06:58N 51°16' E 004°14'0 0.0
2018-Jun-10 06:28N 51°16' E 004°14'0 0.0
2018-Jun-10 05:58N 51°16' E 004°14'0 0.0
2018-Jun-10 05:28N 51°16' E 004°14'0 0.0
2018-Jun-10 04:58N 51°16' E 004°14'0 0.0
2018-Jun-10 04:28N 51°16' E 004°14'0 0.0
2018-Jun-10 03:58N 51°16' E 004°14'0 0.0
2018-Jun-10 03:28N 51°16' E 004°14'0 0.0
2018-Jun-10 02:58N 51°16' E 004°14'0 0.0
2018-Jun-10 02:28N 51°16' E 004°14'0 0.0
2018-Jun-10 01:58N 51°16' E 004°14'0 0.0
2018-Jun-10 01:28N 51°16' E 004°14'0 0.0
2018-Jun-10 00:58N 51°16' E 004°14'0 0.0
2018-Jun-10 00:28N 51°16' E 004°14'0 0.0
2018-Jun-09 23:58N 51°16' E 004°14'0 0.0
2018-Jun-09 23:28N 51°16' E 004°14'0 0.0
2018-Jun-09 22:58N 51°16' E 004°14'0 0.0
2018-Jun-09 22:28N 51°16' E 004°14'0 0.0
2018-Jun-09 21:58N 51°16' E 004°14'0 0.0
2018-Jun-09 21:28N 51°16' E 004°14'0 0.0
2018-Jun-09 20:58N 51°16' E 004°14'0 0.0
2018-Jun-09 20:28N 51°16' E 004°14'0 0.0
2018-Jun-09 19:58N 51°16' E 004°14'0 0.0
2018-Jun-09 19:28N 51°16' E 004°14'0 0.0
2018-Jun-09 18:58N 51°16' E 004°14'0 0.0
2018-Jun-09 18:28N 51°16' E 004°14'0 0.0
2018-Jun-09 17:58N 51°16' E 004°14'  
Track history (hours):
 
Tides and Currents Weather Stations Pressure Air Temp Water Temp Dewpoint Dewpoint Depression Visibility Wind Speed Wind Dir Waves Ship Positions

Mercury

Operator: Royal Caribbean Cruises Ltd

Last reported at 2018-Jun-19 17:46 UTC. Time now 2018-Jun-19 20:03 UTC.
Position N 54°35' E 007°25'.

Length 199 m; draft 8 m.

Type: Cargo ship. MMSI: 371862000.

Date/timePositionNaut miles runAvg speedWind from/ knotsBaromVisibWave heightAir tempDewpointWater temp
2018-Jun-19 17:46N 54°35' E 007°25'  
2018-Jun-17 00:08N 54°41' E 007°42'0 2.1
2018-Jun-16 23:59N 54°41' E 007°41'1 2.5
2018-Jun-16 23:30N 54°42' E 007°40'16 0.4
2018-Jun-15 08:27N 54°41' E 007°12'1 1.8
2018-Jun-15 07:54N 54°41' E 007°10'1 1.7
2018-Jun-15 07:29N 54°41' E 007°09'  
2018-Jun-12 13:04N 53°38' E 004°50'212.0
2018-Jun-12 12:54N 53°36' E 004°49'512.2
2018-Jun-12 12:30N 53°32' E 004°45'612.5
2018-Jun-12 12:00N 53°26' E 004°42'612.4
2018-Jun-12 11:30N 53°20' E 004°39'712.3
2018-Jun-12 10:55N 53°13' E 004°34'512.0
2018-Jun-12 10:30N 53°09' E 004°30'611.9
2018-Jun-12 10:00N 53°04' E 004°25'612.1
2018-Jun-12 09:30N 52°59' E 004°20'612.6
2018-Jun-12 09:00N 52°53' E 004°16'712.5
2018-Jun-12 08:29N 52°48' E 004°10'612.4
2018-Jun-12 08:00N 52°43' E 004°04'712.6
2018-Jun-12 07:29N 52°38' E 003°56'612.4
2018-Jun-12 07:00N 52°34' E 003°49'612.3
2018-Jun-12 06:30N 52°29' E 003°43'612.3
2018-Jun-12 06:00N 52°24' E 003°39'612.7
2018-Jun-12 05:30N 52°18' E 003°35'713.1
2018-Jun-12 05:00N 52°12' E 003°30'713.5
2018-Jun-12 04:30N 52°06' E 003°25'713.7
2018-Jun-12 04:00N 51°59' E 003°23'714.0
2018-Jun-12 03:30N 51°52' E 003°21'714.2
2018-Jun-12 02:59N 51°45' E 003°16'611.6
2018-Jun-12 02:30N 51°40' E 003°19'611.7
2018-Jun-12 02:00N 51°35' E 003°24'612.3
2018-Jun-12 01:30N 51°30' E 003°29'611.1
2018-Jun-12 01:00N 51°26' E 003°35'4 7.8
2018-Jun-12 00:31N 51°26' E 003°41'714.8
2018-Jun-12 00:01N 51°21' E 003°50'612.8
2018-Jun-11 23:30N 51°25' E 003°58'4 8.2
2018-Jun-11 23:00N 51°23' E 004°03'612.1
2018-Jun-11 22:30N 51°23' E 004°13'510.0
2018-Jun-11 22:01N 51°19' E 004°16'2 4.6
2018-Jun-11 21:31N 51°17' E 004°15'0 0.0
2018-Jun-11 21:00N 51°17' E 004°15'0 1.0
2018-Jun-11 20:30N 51°16' E 004°15'1 1.2
2018-Jun-11 20:01N 51°16' E 004°14'0 0.0
2018-Jun-11 19:31N 51°16' E 004°14'0 0.0
2018-Jun-11 19:01N 51°16' E 004°14'0 0.0
2018-Jun-11 18:28N 51°16' E 004°14'0 0.0
2018-Jun-11 17:58N 51°16' E 004°14'0 0.0
2018-Jun-11 17:28N 51°16' E 004°14'0 0.0
2018-Jun-11 16:58N 51°16' E 004°14'0 0.0
2018-Jun-11 16:28N 51°16' E 004°14'0 0.0
2018-Jun-11 15:58N 51°16' E 004°14'0 0.0
2018-Jun-11 15:28N 51°16' E 004°14'0 0.0
2018-Jun-11 14:58N 51°16' E 004°14'0 0.0
2018-Jun-11 14:28N 51°16' E 004°14'0 0.0
2018-Jun-11 13:58N 51°16' E 004°14'0 0.0
2018-Jun-11 13:28N 51°16' E 004°14'0 0.0
2018-Jun-11 12:58N 51°16' E 004°14'0 0.0
2018-Jun-11 12:28N 51°16' E 004°14'0 0.0
2018-Jun-11 11:58N 51°16' E 004°14'0 0.0
2018-Jun-11 11:28N 51°16' E 004°14'0 0.0
2018-Jun-11 10:58N 51°16' E 004°14'0 0.0
2018-Jun-11 10:28N 51°16' E 004°14'0 0.0
2018-Jun-11 09:58N 51°16' E 004°14'0 0.0
2018-Jun-11 09:28N 51°16' E 004°14'0 0.0
2018-Jun-11 08:58N 51°16' E 004°14'0 0.0
2018-Jun-11 08:28N 51°16' E 004°14'0 0.0
2018-Jun-11 07:58N 51°16' E 004°14'0 0.0
2018-Jun-11 07:28N 51°16' E 004°14'0 0.0
2018-Jun-11 06:58N 51°16' E 004°14'0 0.0
2018-Jun-11 06:28N 51°16' E 004°14'0 0.0
2018-Jun-11 05:58N 51°16' E 004°14'0 0.0
2018-Jun-11 05:28N 51°16' E 004°14'0 0.0
2018-Jun-11 04:58N 51°16' E 004°14'0 0.0
2018-Jun-11 04:28N 51°16' E 004°14'0 0.0
2018-Jun-11 03:58N 51°16' E 004°14'0 0.0
2018-Jun-11 03:28N 51°16' E 004°14'0 0.0
2018-Jun-11 02:58N 51°16' E 004°14'0 0.0
2018-Jun-11 02:28N 51°16' E 004°14'0 0.0
2018-Jun-11 01:58N 51°16' E 004°14'0 0.0
2018-Jun-11 01:28N 51°16' E 004°14'0 0.0
2018-Jun-11 00:58N 51°16' E 004°14'0 0.0
2018-Jun-11 00:28N 51°16' E 004°14'0 0.0
2018-Jun-10 23:58N 51°16' E 004°14'0 0.0
2018-Jun-10 23:28N 51°16' E 004°14'0 0.0
2018-Jun-10 22:58N 51°16' E 004°14'0 0.0
2018-Jun-10 22:28N 51°16' E 004°14'0 0.0
2018-Jun-10 21:58N 51°16' E 004°14'0 0.0
2018-Jun-10 21:28N 51°16' E 004°14'0 0.0
2018-Jun-10 20:58N 51°16' E 004°14'0 0.0
2018-Jun-10 20:28N 51°16' E 004°14'0 0.0
2018-Jun-10 19:58N 51°16' E 004°14'0 0.0
2018-Jun-10 19:25N 51°16' E 004°14'0 0.0
2018-Jun-10 18:58N 51°16' E 004°14'0 0.0
2018-Jun-10 18:28N 51°16' E 004°14'0 0.0
2018-Jun-10 17:58N 51°16' E 004°14'0 0.0
2018-Jun-10 17:28N 51°16' E 004°14'0 0.0
2018-Jun-10 16:58N 51°16' E 004°14'0 0.0
2018-Jun-10 16:28N 51°16' E 004°14'0 0.0
2018-Jun-10 15:58N 51°16' E 004°14'0 0.0
2018-Jun-10 15:28N 51°16' E 004°14'0 0.0
2018-Jun-10 14:58N 51°16' E 004°14'0 0.0
2018-Jun-10 13:58N 51°16' E 004°14'0 0.0
2018-Jun-10 13:28N 51°16' E 004°14'0 0.0
2018-Jun-10 12:58N 51°16' E 004°14'0 0.0
2018-Jun-10 12:28N 51°16' E 004°14'0 0.0
2018-Jun-10 11:58N 51°16' E 004°14'0 0.0
2018-Jun-10 11:28N 51°16' E 004°14'0 0.0
2018-Jun-10 10:58N 51°16' E 004°14'0 0.0
2018-Jun-10 10:28N 51°16' E 004°14'0 0.0
2018-Jun-10 09:58N 51°16' E 004°14'0 0.0
2018-Jun-10 09:28N 51°16' E 004°14'0 0.0
2018-Jun-10 08:58N 51°16' E 004°14'0 0.0
2018-Jun-10 08:28N 51°16' E 004°14'0 0.0
2018-Jun-10 07:58N 51°16' E 004°14'0 0.0
2018-Jun-10 07:28N 51°16' E 004°14'0 0.0
2018-Jun-10 06:58N 51°16' E 004°14'0 0.0
2018-Jun-10 06:28N 51°16' E 004°14'0 0.0
2018-Jun-10 05:58N 51°16' E 004°14'0 0.0
2018-Jun-10 05:28N 51°16' E 004°14'0 0.0
2018-Jun-10 04:58N 51°16' E 004°14'0 0.0
2018-Jun-10 04:28N 51°16' E 004°14'0 0.0
2018-Jun-10 03:58N 51°16' E 004°14'0 0.0
2018-Jun-10 03:28N 51°16' E 004°14'0 0.0
2018-Jun-10 02:58N 51°16' E 004°14'0 0.0
2018-Jun-10 02:28N 51°16' E 004°14'0 0.0
2018-Jun-10 01:58N 51°16' E 004°14'0 0.0
2018-Jun-10 01:28N 51°16' E 004°14'0 0.0
2018-Jun-10 00:58N 51°16' E 004°14'0 0.0
2018-Jun-10 00:28N 51°16' E 004°14'0 0.0
2018-Jun-09 23:58N 51°16' E 004°14'0 0.0
2018-Jun-09 23:28N 51°16' E 004°14'0 0.0
2018-Jun-09 22:58N 51°16' E 004°14'0 0.0
2018-Jun-09 22:28N 51°16' E 004°14'0 0.0
2018-Jun-09 21:58N 51°16' E 004°14'0 0.0
2018-Jun-09 21:28N 51°16' E 004°14'0 0.0
2018-Jun-09 20:58N 51°16' E 004°14'0 0.0
2018-Jun-09 20:28N 51°16' E 004°14'0 0.0
2018-Jun-09 19:58N 51°16' E 004°14'0 0.0
2018-Jun-09 19:28N 51°16' E 004°14'0 0.0
2018-Jun-09 18:58N 51°16' E 004°14'0 0.0
2018-Jun-09 18:28N 51°16' E 004°14'0 0.0
2018-Jun-09 17:58N 51°16' E 004°14'  

Dump ship's entire track history